sensor_id;sensor_type;location;lat;lon;timestamp;P1;durP1;ratioP1;P2;durP2;ratioP2
62861;SDS011;48953;53.110;5.592;2022-09-09T00:00:53;18.15;;;9.65;;
62861;SDS011;48953;53.110;5.592;2022-09-09T00:03:26;14.73;;;9.35;;
62861;SDS011;48953;53.110;5.592;2022-09-09T00:08:49;13.40;;;9.13;;
62861;SDS011;48953;53.110;5.592;2022-09-09T00:11:17;17.42;;;9.10;;
62861;SDS011;48953;53.110;5.592;2022-09-09T00:13:52;23.48;;;9.05;;
62861;SDS011;48953;53.110;5.592;2022-09-09T00:16:24;12.60;;;8.38;;
62861;SDS011;48953;53.110;5.592;2022-09-09T00:23:57;19.50;;;8.27;;
62861;SDS011;48953;53.110;5.592;2022-09-09T00:26:38;12.40;;;8.18;;
62861;SDS011;48953;53.110;5.592;2022-09-09T00:36:41;12.50;;;8.00;;
62861;SDS011;48953;53.110;5.592;2022-09-09T00:39:16;14.55;;;7.43;;
62861;SDS011;48953;53.110;5.592;2022-09-09T00:44:53;11.90;;;7.50;;
62861;SDS011;48953;53.110;5.592;2022-09-09T00:50:13;22.23;;;8.73;;
62861;SDS011;48953;53.110;5.592;2022-09-09T00:55:49;16.05;;;8.45;;
62861;SDS011;48953;53.110;5.592;2022-09-09T00:58:33;14.38;;;8.48;;
62861;SDS011;48953;53.110;5.592;2022-09-09T01:01:07;17.23;;;8.40;;
62861;SDS011;48953;53.110;5.592;2022-09-09T01:03:49;16.67;;;8.80;;
62861;SDS011;48953;53.110;5.592;2022-09-09T01:06:30;17.92;;;8.23;;
62861;SDS011;48953;53.110;5.592;2022-09-09T01:17:15;16.42;;;7.78;;
62861;SDS011;48953;53.110;5.592;2022-09-09T01:19:52;12.75;;;8.27;;
62861;SDS011;48953;53.110;5.592;2022-09-09T01:22:35;16.73;;;8.68;;
62861;SDS011;48953;53.110;5.592;2022-09-09T01:25:28;15.70;;;8.07;;
62861;SDS011;48953;53.110;5.592;2022-09-09T01:28:10;13.77;;;8.15;;
62861;SDS011;48953;53.110;5.592;2022-09-09T01:30:50;12.18;;;8.25;;
62861;SDS011;48953;53.110;5.592;2022-09-09T01:33:16;12.18;;;8.15;;
62861;SDS011;48953;53.110;5.592;2022-09-09T01:35:45;13.50;;;8.43;;
62861;SDS011;48953;53.110;5.592;2022-09-09T01:38:25;15.35;;;8.35;;
62861;SDS011;48953;53.110;5.592;2022-09-09T01:40:52;17.00;;;8.77;;
62861;SDS011;48953;53.110;5.592;2022-09-09T01:43:20;17.70;;;9.63;;
62861;SDS011;48953;53.110;5.592;2022-09-09T01:45:46;15.15;;;8.63;;
62861;SDS011;48953;53.110;5.592;2022-09-09T01:48:14;14.07;;;8.57;;
62861;SDS011;48953;53.110;5.592;2022-09-09T01:50:40;15.35;;;9.00;;
62861;SDS011;48953;53.110;5.592;2022-09-09T01:53:06;16.65;;;8.88;;
62861;SDS011;48953;53.110;5.592;2022-09-09T01:55:40;12.45;;;8.48;;
62861;SDS011;48953;53.110;5.592;2022-09-09T01:58:32;17.50;;;8.25;;
62861;SDS011;48953;53.110;5.592;2022-09-09T02:03:53;20.88;;;9.43;;
62861;SDS011;48953;53.110;5.592;2022-09-09T02:06:28;15.00;;;9.25;;
62861;SDS011;48953;53.110;5.592;2022-09-09T02:08:59;19.63;;;8.93;;
62861;SDS011;48953;53.110;5.592;2022-09-09T02:11:27;18.65;;;9.18;;
62861;SDS011;48953;53.110;5.592;2022-09-09T02:13:55;18.23;;;9.27;;
62861;SDS011;48953;53.110;5.592;2022-09-09T02:16:27;16.73;;;8.70;;
62861;SDS011;48953;53.110;5.592;2022-09-09T02:21:50;14.85;;;8.88;;
62861;SDS011;48953;53.110;5.592;2022-09-09T02:24:18;13.85;;;8.13;;
62861;SDS011;48953;53.110;5.592;2022-09-09T02:26:45;14.18;;;8.95;;
62861;SDS011;48953;53.110;5.592;2022-09-09T02:29:15;16.52;;;8.65;;
62861;SDS011;48953;53.110;5.592;2022-09-09T02:31:46;12.90;;;8.07;;
62861;SDS011;48953;53.110;5.592;2022-09-09T02:34:14;20.80;;;9.13;;
62861;SDS011;48953;53.110;5.592;2022-09-09T02:36:45;14.93;;;9.20;;
62861;SDS011;48953;53.110;5.592;2022-09-09T02:39:11;16.25;;;8.68;;
62861;SDS011;48953;53.110;5.592;2022-09-09T02:41:39;12.15;;;8.90;;
62861;SDS011;48953;53.110;5.592;2022-09-09T02:44:12;14.75;;;9.52;;
62861;SDS011;48953;53.110;5.592;2022-09-09T02:49:52;16.83;;;8.80;;
62861;SDS011;48953;53.110;5.592;2022-09-09T02:52:59;15.35;;;8.27;;
62861;SDS011;48953;53.110;5.592;2022-09-09T02:55:34;13.45;;;8.80;;
62861;SDS011;48953;53.110;5.592;2022-09-09T02:58:05;15.70;;;8.98;;
62861;SDS011;48953;53.110;5.592;2022-09-09T03:00:33;13.88;;;9.27;;
62861;SDS011;48953;53.110;5.592;2022-09-09T03:03:01;22.30;;;10.10;;
62861;SDS011;48953;53.110;5.592;2022-09-09T03:05:29;17.05;;;9.38;;
62861;SDS011;48953;53.110;5.592;2022-09-09T03:07:55;19.08;;;10.38;;
62861;SDS011;48953;53.110;5.592;2022-09-09T03:10:21;18.27;;;9.88;;
62861;SDS011;48953;53.110;5.592;2022-09-09T03:12:47;15.82;;;9.68;;
62861;SDS011;48953;53.110;5.592;2022-09-09T03:15:12;17.40;;;10.10;;
62861;SDS011;48953;53.110;5.592;2022-09-09T03:17:39;16.75;;;9.13;;
62861;SDS011;48953;53.110;5.592;2022-09-09T03:20:06;19.70;;;10.07;;
62861;SDS011;48953;53.110;5.592;2022-09-09T03:22:33;20.55;;;9.77;;
62861;SDS011;48953;53.110;5.592;2022-09-09T03:24:58;20.05;;;9.40;;
62861;SDS011;48953;53.110;5.592;2022-09-09T03:27:24;16.40;;;8.55;;
62861;SDS011;48953;53.110;5.592;2022-09-09T03:29:49;13.38;;;8.20;;
62861;SDS011;48953;53.110;5.592;2022-09-09T03:32:16;18.00;;;8.25;;
62861;SDS011;48953;53.110;5.592;2022-09-09T03:34:42;12.25;;;8.27;;
62861;SDS011;48953;53.110;5.592;2022-09-09T03:37:08;11.70;;;7.53;;
62861;SDS011;48953;53.110;5.592;2022-09-09T03:39:34;12.27;;;6.80;;
62861;SDS011;48953;53.110;5.592;2022-09-09T03:42:00;10.00;;;6.68;;
62861;SDS011;48953;53.110;5.592;2022-09-09T03:44:28;10.75;;;6.78;;
62861;SDS011;48953;53.110;5.592;2022-09-09T03:46:54;13.93;;;6.80;;
62861;SDS011;48953;53.110;5.592;2022-09-09T03:49:20;13.85;;;7.25;;
62861;SDS011;48953;53.110;5.592;2022-09-09T03:51:47;10.38;;;6.50;;
62861;SDS011;48953;53.110;5.592;2022-09-09T03:54:12;10.00;;;6.47;;
62861;SDS011;48953;53.110;5.592;2022-09-09T03:56:38;14.23;;;6.88;;
62861;SDS011;48953;53.110;5.592;2022-09-09T03:59:06;10.40;;;6.95;;
62861;SDS011;48953;53.110;5.592;2022-09-09T04:01:33;11.65;;;6.60;;
62861;SDS011;48953;53.110;5.592;2022-09-09T04:03:59;10.75;;;6.88;;
62861;SDS011;48953;53.110;5.592;2022-09-09T04:06:27;20.00;;;6.53;;
62861;SDS011;48953;53.110;5.592;2022-09-09T04:08:53;11.15;;;6.43;;
62861;SDS011;48953;53.110;5.592;2022-09-09T04:11:19;9.30;;;6.43;;
62861;SDS011;48953;53.110;5.592;2022-09-09T04:13:44;13.27;;;6.65;;
62861;SDS011;48953;53.110;5.592;2022-09-09T04:16:11;8.95;;;6.32;;
62861;SDS011;48953;53.110;5.592;2022-09-09T04:18:38;11.75;;;6.80;;
62861;SDS011;48953;53.110;5.592;2022-09-09T04:21:04;8.73;;;6.15;;
62861;SDS011;48953;53.110;5.592;2022-09-09T04:23:31;9.90;;;6.63;;
62861;SDS011;48953;53.110;5.592;2022-09-09T04:25:59;9.48;;;6.28;;
62861;SDS011;48953;53.110;5.592;2022-09-09T04:28:26;10.27;;;5.90;;
62861;SDS011;48953;53.110;5.592;2022-09-09T04:30:54;9.00;;;6.15;;
62861;SDS011;48953;53.110;5.592;2022-09-09T04:33:23;12.07;;;6.40;;
62861;SDS011;48953;53.110;5.592;2022-09-09T04:35:51;12.20;;;6.10;;
62861;SDS011;48953;53.110;5.592;2022-09-09T04:38:19;9.13;;;5.88;;
62861;SDS011;48953;53.110;5.592;2022-09-09T04:40:47;11.15;;;6.68;;
62861;SDS011;48953;53.110;5.592;2022-09-09T04:43:16;9.45;;;5.47;;
62861;SDS011;48953;53.110;5.592;2022-09-09T04:45:43;12.27;;;5.55;;
62861;SDS011;48953;53.110;5.592;2022-09-09T04:48:11;11.70;;;6.00;;
62861;SDS011;48953;53.110;5.592;2022-09-09T04:50:37;13.07;;;6.20;;
62861;SDS011;48953;53.110;5.592;2022-09-09T04:53:03;16.92;;;6.50;;
62861;SDS011;48953;53.110;5.592;2022-09-09T04:55:30;11.50;;;6.07;;
62861;SDS011;48953;53.110;5.592;2022-09-09T04:57:56;10.38;;;6.57;;
62861;SDS011;48953;53.110;5.592;2022-09-09T05:00:22;14.60;;;6.57;;
62861;SDS011;48953;53.110;5.592;2022-09-09T05:02:48;12.15;;;6.68;;
62861;SDS011;48953;53.110;5.592;2022-09-09T05:05:13;13.93;;;6.70;;
62861;SDS011;48953;53.110;5.592;2022-09-09T05:07:39;10.05;;;6.05;;
62861;SDS011;48953;53.110;5.592;2022-09-09T05:10:05;10.68;;;5.95;;
62861;SDS011;48953;53.110;5.592;2022-09-09T05:12:31;12.80;;;5.82;;
62861;SDS011;48953;53.110;5.592;2022-09-09T05:14:57;14.30;;;6.65;;
62861;SDS011;48953;53.110;5.592;2022-09-09T05:17:23;12.18;;;6.32;;
62861;SDS011;48953;53.110;5.592;2022-09-09T05:19:48;15.02;;;6.88;;
62861;SDS011;48953;53.110;5.592;2022-09-09T05:22:18;9.77;;;5.55;;
62861;SDS011;48953;53.110;5.592;2022-09-09T05:24:48;14.93;;;6.78;;
62861;SDS011;48953;53.110;5.592;2022-09-09T05:27:15;16.08;;;7.18;;
62861;SDS011;48953;53.110;5.592;2022-09-09T05:29:43;11.75;;;6.30;;
62861;SDS011;48953;53.110;5.592;2022-09-09T05:32:09;14.70;;;7.25;;
62861;SDS011;48953;53.110;5.592;2022-09-09T05:34:35;14.77;;;7.18;;
62861;SDS011;48953;53.110;5.592;2022-09-09T05:37:02;24.60;;;9.68;;
62861;SDS011;48953;53.110;5.592;2022-09-09T05:39:29;17.38;;;8.35;;
62861;SDS011;48953;53.110;5.592;2022-09-09T05:41:54;20.85;;;8.40;;
62861;SDS011;48953;53.110;5.592;2022-09-09T05:44:20;19.15;;;9.77;;
62861;SDS011;48953;53.110;5.592;2022-09-09T05:46:48;14.93;;;8.35;;
62861;SDS011;48953;53.110;5.592;2022-09-09T05:49:14;16.88;;;9.60;;
62861;SDS011;48953;53.110;5.592;2022-09-09T05:51:40;17.48;;;9.20;;
62861;SDS011;48953;53.110;5.592;2022-09-09T05:54:08;19.48;;;9.68;;
62861;SDS011;48953;53.110;5.592;2022-09-09T05:56:34;18.88;;;9.90;;
62861;SDS011;48953;53.110;5.592;2022-09-09T05:58:59;18.20;;;10.15;;
62861;SDS011;48953;53.110;5.592;2022-09-09T06:01:26;15.73;;;9.85;;
62861;SDS011;48953;53.110;5.592;2022-09-09T06:03:55;17.48;;;8.48;;
62861;SDS011;48953;53.110;5.592;2022-09-09T06:06:21;15.88;;;9.40;;
62861;SDS011;48953;53.110;5.592;2022-09-09T06:08:50;13.73;;;8.20;;
62861;SDS011;48953;53.110;5.592;2022-09-09T06:11:21;13.93;;;7.88;;
62861;SDS011;48953;53.110;5.592;2022-09-09T06:13:52;12.02;;;7.88;;
62861;SDS011;48953;53.110;5.592;2022-09-09T06:16:20;15.57;;;7.88;;
62861;SDS011;48953;53.110;5.592;2022-09-09T06:18:48;12.80;;;8.00;;
62861;SDS011;48953;53.110;5.592;2022-09-09T06:21:16;12.57;;;8.00;;
62861;SDS011;48953;53.110;5.592;2022-09-09T06:23:44;11.35;;;7.53;;
62861;SDS011;48953;53.110;5.592;2022-09-09T06:26:14;15.60;;;8.18;;
62861;SDS011;48953;53.110;5.592;2022-09-09T06:28:43;18.48;;;8.70;;
62861;SDS011;48953;53.110;5.592;2022-09-09T06:31:11;12.40;;;8.48;;
62861;SDS011;48953;53.110;5.592;2022-09-09T06:33:39;12.55;;;7.63;;
62861;SDS011;48953;53.110;5.592;2022-09-09T06:36:11;14.63;;;8.25;;
62861;SDS011;48953;53.110;5.592;2022-09-09T06:38:38;12.10;;;7.72;;
62861;SDS011;48953;53.110;5.592;2022-09-09T06:41:03;10.73;;;7.70;;
62861;SDS011;48953;53.110;5.592;2022-09-09T06:43:31;15.10;;;8.55;;
62861;SDS011;48953;53.110;5.592;2022-09-09T06:45:57;14.10;;;7.68;;
62861;SDS011;48953;53.110;5.592;2022-09-09T06:48:25;17.73;;;8.10;;
62861;SDS011;48953;53.110;5.592;2022-09-09T06:53:40;12.63;;;7.15;;
62861;SDS011;48953;53.110;5.592;2022-09-09T06:58:44;13.98;;;6.45;;
62861;SDS011;48953;53.110;5.592;2022-09-09T07:01:11;8.60;;;6.00;;
62861;SDS011;48953;53.110;5.592;2022-09-09T07:03:41;7.22;;;4.88;;
62861;SDS011;48953;53.110;5.592;2022-09-09T07:06:09;8.00;;;5.57;;
62861;SDS011;48953;53.110;5.592;2022-09-09T07:08:43;8.52;;;5.15;;
62861;SDS011;48953;53.110;5.592;2022-09-09T07:11:09;7.30;;;4.60;;
62861;SDS011;48953;53.110;5.592;2022-09-09T07:13:36;8.98;;;4.90;;
62861;SDS011;48953;53.110;5.592;2022-09-09T07:16:08;6.80;;;4.30;;
62861;SDS011;48953;53.110;5.592;2022-09-09T07:18:39;8.40;;;4.80;;
62861;SDS011;48953;53.110;5.592;2022-09-09T07:21:06;7.45;;;4.72;;
62861;SDS011;48953;53.110;5.592;2022-09-09T07:23:32;4.70;;;4.18;;
62861;SDS011;48953;53.110;5.592;2022-09-09T07:25:59;6.05;;;4.35;;
62861;SDS011;48953;53.110;5.592;2022-09-09T07:28:26;5.57;;;4.35;;
62861;SDS011;48953;53.110;5.592;2022-09-09T07:30:56;4.88;;;3.65;;
62861;SDS011;48953;53.110;5.592;2022-09-09T07:33:23;6.32;;;3.83;;
62861;SDS011;48953;53.110;5.592;2022-09-09T07:35:49;6.72;;;3.95;;
62861;SDS011;48953;53.110;5.592;2022-09-09T07:38:15;5.60;;;3.63;;
62861;SDS011;48953;53.110;5.592;2022-09-09T07:40:41;4.82;;;3.85;;
62861;SDS011;48953;53.110;5.592;2022-09-09T07:43:07;4.50;;;3.20;;
62861;SDS011;48953;53.110;5.592;2022-09-09T07:45:33;6.25;;;3.50;;
62861;SDS011;48953;53.110;5.592;2022-09-09T07:48:00;4.82;;;3.35;;
62861;SDS011;48953;53.110;5.592;2022-09-09T07:50:26;4.03;;;3.42;;
62861;SDS011;48953;53.110;5.592;2022-09-09T07:52:52;7.22;;;3.50;;
62861;SDS011;48953;53.110;5.592;2022-09-09T07:55:19;4.88;;;3.40;;
62861;SDS011;48953;53.110;5.592;2022-09-09T07:57:45;4.68;;;3.40;;
62861;SDS011;48953;53.110;5.592;2022-09-09T08:00:11;3.65;;;3.10;;
62861;SDS011;48953;53.110;5.592;2022-09-09T08:02:37;7.45;;;3.60;;
62861;SDS011;48953;53.110;5.592;2022-09-09T08:05:03;5.38;;;3.75;;
62861;SDS011;48953;53.110;5.592;2022-09-09T08:07:29;4.85;;;3.58;;
62861;SDS011;48953;53.110;5.592;2022-09-09T08:09:55;5.15;;;3.67;;
62861;SDS011;48953;53.110;5.592;2022-09-09T08:12:20;5.75;;;3.25;;
62861;SDS011;48953;53.110;5.592;2022-09-09T08:14:46;7.93;;;3.80;;
62861;SDS011;48953;53.110;5.592;2022-09-09T08:17:13;5.38;;;3.38;;
62861;SDS011;48953;53.110;5.592;2022-09-09T08:19:39;4.43;;;3.47;;
62861;SDS011;48953;53.110;5.592;2022-09-09T08:22:04;3.70;;;3.35;;
62861;SDS011;48953;53.110;5.592;2022-09-09T08:24:30;8.27;;;4.00;;
62861;SDS011;48953;53.110;5.592;2022-09-09T08:26:56;5.80;;;3.95;;
62861;SDS011;48953;53.110;5.592;2022-09-09T08:29:21;4.80;;;4.25;;
62861;SDS011;48953;53.110;5.592;2022-09-09T08:31:49;4.32;;;3.60;;
62861;SDS011;48953;53.110;5.592;2022-09-09T08:34:17;6.00;;;4.13;;
62861;SDS011;48953;53.110;5.592;2022-09-09T08:36:45;6.63;;;3.78;;
62861;SDS011;48953;53.110;5.592;2022-09-09T08:39:18;7.70;;;3.97;;
62861;SDS011;48953;53.110;5.592;2022-09-09T08:47:42;7.45;;;4.38;;
62861;SDS011;48953;53.110;5.592;2022-09-09T08:50:30;6.85;;;3.83;;
62861;SDS011;48953;53.110;5.592;2022-09-09T08:53:16;6.35;;;3.70;;
62861;SDS011;48953;53.110;5.592;2022-09-09T08:55:48;9.07;;;4.13;;
62861;SDS011;48953;53.110;5.592;2022-09-09T08:58:16;6.25;;;3.92;;
62861;SDS011;48953;53.110;5.592;2022-09-09T09:11:42;6.30;;;4.10;;
62861;SDS011;48953;53.110;5.592;2022-09-09T09:14:17;5.72;;;3.80;;
62861;SDS011;48953;53.110;5.592;2022-09-09T09:16:54;7.07;;;3.92;;
62861;SDS011;48953;53.110;5.592;2022-09-09T09:19:27;6.55;;;3.80;;
62861;SDS011;48953;53.110;5.592;2022-09-09T09:32:40;7.35;;;3.40;;
62861;SDS011;48953;53.110;5.592;2022-09-09T09:35:12;6.20;;;2.97;;
62861;SDS011;48953;53.110;5.592;2022-09-09T09:37:39;5.03;;;2.72;;
62861;SDS011;48953;53.110;5.592;2022-09-09T09:40:13;5.60;;;2.83;;
62861;SDS011;48953;53.110;5.592;2022-09-09T09:42:53;5.65;;;2.83;;
62861;SDS011;48953;53.110;5.592;2022-09-09T09:45:32;6.07;;;2.97;;
62861;SDS011;48953;53.110;5.592;2022-09-09T09:48:00;7.65;;;3.00;;
62861;SDS011;48953;53.110;5.592;2022-09-09T09:50:28;9.10;;;3.08;;
62861;SDS011;48953;53.110;5.592;2022-09-09T09:52:54;4.93;;;2.40;;
62861;SDS011;48953;53.110;5.592;2022-09-09T09:55:22;7.43;;;2.67;;
62861;SDS011;48953;53.110;5.592;2022-09-09T09:57:49;6.95;;;2.55;;
62861;SDS011;48953;53.110;5.592;2022-09-09T10:00:18;6.88;;;2.78;;
62861;SDS011;48953;53.110;5.592;2022-09-09T10:02:46;6.78;;;2.70;;
62861;SDS011;48953;53.110;5.592;2022-09-09T10:05:22;6.22;;;2.30;;
62861;SDS011;48953;53.110;5.592;2022-09-09T10:08:00;5.38;;;2.55;;
62861;SDS011;48953;53.110;5.592;2022-09-09T10:10:33;7.85;;;3.15;;
62861;SDS011;48953;53.110;5.592;2022-09-09T10:13:18;4.75;;;2.30;;
62861;SDS011;48953;53.110;5.592;2022-09-09T10:21:20;6.50;;;2.15;;
62861;SDS011;48953;53.110;5.592;2022-09-09T10:24:28;6.10;;;2.40;;
62861;SDS011;48953;53.110;5.592;2022-09-09T10:27:00;3.45;;;1.88;;
62861;SDS011;48953;53.110;5.592;2022-09-09T10:29:58;5.22;;;1.67;;
62861;SDS011;48953;53.110;5.592;2022-09-09T10:35:24;8.68;;;2.10;;
62861;SDS011;48953;53.110;5.592;2022-09-09T10:45:44;5.40;;;2.22;;
62861;SDS011;48953;53.110;5.592;2022-09-09T10:48:28;4.60;;;1.52;;
62861;SDS011;48953;53.110;5.592;2022-09-09T10:54:05;5.60;;;2.10;;
62861;SDS011;48953;53.110;5.592;2022-09-09T10:57:11;7.25;;;2.10;;
62861;SDS011;48953;53.110;5.592;2022-09-09T10:59:49;8.30;;;2.10;;
62861;SDS011;48953;53.110;5.592;2022-09-09T11:02:25;6.82;;;2.58;;
62861;SDS011;48953;53.110;5.592;2022-09-09T11:04:54;5.05;;;2.17;;
62861;SDS011;48953;53.110;5.592;2022-09-09T11:07:43;4.72;;;1.95;;
62861;SDS011;48953;53.110;5.592;2022-09-09T11:10:52;5.53;;;2.10;;
62861;SDS011;48953;53.110;5.592;2022-09-09T11:13:28;5.55;;;2.40;;
62861;SDS011;48953;53.110;5.592;2022-09-09T11:16:05;6.30;;;2.35;;
62861;SDS011;48953;53.110;5.592;2022-09-09T11:18:41;5.53;;;2.50;;
62861;SDS011;48953;53.110;5.592;2022-09-09T11:21:13;6.88;;;2.50;;
62861;SDS011;48953;53.110;5.592;2022-09-09T11:23:49;6.43;;;2.80;;
62861;SDS011;48953;53.110;5.592;2022-09-09T11:26:35;4.50;;;2.17;;
62861;SDS011;48953;53.110;5.592;2022-09-09T11:29:20;4.55;;;1.98;;
62861;SDS011;48953;53.110;5.592;2022-09-09T11:38:00;7.15;;;1.98;;
62861;SDS011;48953;53.110;5.592;2022-09-09T11:40:44;5.60;;;1.90;;
62861;SDS011;48953;53.110;5.592;2022-09-09T11:45:39;4.97;;;1.98;;
62861;SDS011;48953;53.110;5.592;2022-09-09T11:48:22;5.47;;;1.88;;
62861;SDS011;48953;53.110;5.592;2022-09-09T11:51:07;8.15;;;2.13;;
62861;SDS011;48953;53.110;5.592;2022-09-09T11:53:34;7.38;;;2.13;;
62861;SDS011;48953;53.110;5.592;2022-09-09T11:58:28;6.78;;;1.92;;
62861;SDS011;48953;53.110;5.592;2022-09-09T12:01:12;7.93;;;2.10;;
62861;SDS011;48953;53.110;5.592;2022-09-09T12:03:48;4.55;;;1.88;;
62861;SDS011;48953;53.110;5.592;2022-09-09T12:06:33;7.20;;;2.20;;
62861;SDS011;48953;53.110;5.592;2022-09-09T12:09:17;6.82;;;2.45;;
62861;SDS011;48953;53.110;5.592;2022-09-09T12:11:46;6.40;;;2.55;;
62861;SDS011;48953;53.110;5.592;2022-09-09T12:16:47;5.35;;;2.30;;
62861;SDS011;48953;53.110;5.592;2022-09-09T12:19:14;5.97;;;2.10;;
62861;SDS011;48953;53.110;5.592;2022-09-09T12:21:51;5.93;;;2.20;;
62861;SDS011;48953;53.110;5.592;2022-09-09T12:24:20;3.35;;;1.77;;
62861;SDS011;48953;53.110;5.592;2022-09-09T12:26:52;8.93;;;1.95;;
62861;SDS011;48953;53.110;5.592;2022-09-09T12:32:11;4.45;;;2.05;;
62861;SDS011;48953;53.110;5.592;2022-09-09T12:34:42;5.70;;;2.10;;
62861;SDS011;48953;53.110;5.592;2022-09-09T12:37:29;6.32;;;2.10;;
62861;SDS011;48953;53.110;5.592;2022-09-09T12:42:54;3.90;;;1.83;;
62861;SDS011;48953;53.110;5.592;2022-09-09T12:45:22;5.50;;;2.10;;
62861;SDS011;48953;53.110;5.592;2022-09-09T12:47:56;6.28;;;2.28;;
62861;SDS011;48953;53.110;5.592;2022-09-09T12:50:32;6.22;;;2.03;;
62861;SDS011;48953;53.110;5.592;2022-09-09T12:53:12;8.13;;;2.28;;
62861;SDS011;48953;53.110;5.592;2022-09-09T12:55:59;7.50;;;2.47;;
62861;SDS011;48953;53.110;5.592;2022-09-09T12:58:25;5.50;;;2.13;;
62861;SDS011;48953;53.110;5.592;2022-09-09T13:00:55;8.00;;;2.58;;
62861;SDS011;48953;53.110;5.592;2022-09-09T13:03:25;6.38;;;2.17;;
62861;SDS011;48953;53.110;5.592;2022-09-09T13:05:52;6.97;;;2.20;;
62861;SDS011;48953;53.110;5.592;2022-09-09T13:08:23;4.28;;;2.15;;
62861;SDS011;48953;53.110;5.592;2022-09-09T13:10:54;4.93;;;2.00;;
62861;SDS011;48953;53.110;5.592;2022-09-09T13:13:28;3.95;;;1.83;;
62861;SDS011;48953;53.110;5.592;2022-09-09T13:16:00;6.57;;;2.00;;
62861;SDS011;48953;53.110;5.592;2022-09-09T13:18:28;3.83;;;1.60;;
62861;SDS011;48953;53.110;5.592;2022-09-09T13:20:56;5.88;;;2.22;;
62861;SDS011;48953;53.110;5.592;2022-09-09T13:23:33;6.03;;;2.08;;
62861;SDS011;48953;53.110;5.592;2022-09-09T13:26:21;5.28;;;2.17;;
62861;SDS011;48953;53.110;5.592;2022-09-09T13:28:47;4.15;;;2.58;;
62861;SDS011;48953;53.110;5.592;2022-09-09T13:31:21;3.38;;;2.00;;
62861;SDS011;48953;53.110;5.592;2022-09-09T13:33:49;3.67;;;2.05;;
62861;SDS011;48953;53.110;5.592;2022-09-09T13:36:15;4.30;;;2.05;;
62861;SDS011;48953;53.110;5.592;2022-09-09T13:38:56;2.25;;;1.45;;
62861;SDS011;48953;53.110;5.592;2022-09-09T13:41:26;3.20;;;1.80;;
62861;SDS011;48953;53.110;5.592;2022-09-09T13:43:56;4.20;;;2.10;;
62861;SDS011;48953;53.110;5.592;2022-09-09T13:46:35;7.85;;;2.00;;
62861;SDS011;48953;53.110;5.592;2022-09-09T13:54:02;3.10;;;2.35;;
62861;SDS011;48953;53.110;5.592;2022-09-09T13:58:58;6.25;;;2.50;;
62861;SDS011;48953;53.110;5.592;2022-09-09T14:01:23;3.65;;;2.20;;
62861;SDS011;48953;53.110;5.592;2022-09-09T14:03:49;8.00;;;2.53;;
62861;SDS011;48953;53.110;5.592;2022-09-09T14:06:16;4.50;;;2.03;;
62861;SDS011;48953;53.110;5.592;2022-09-09T14:08:43;2.63;;;1.77;;
62861;SDS011;48953;53.110;5.592;2022-09-09T14:11:11;4.22;;;1.90;;
62861;SDS011;48953;53.110;5.592;2022-09-09T14:13:37;4.15;;;1.77;;
62861;SDS011;48953;53.110;5.592;2022-09-09T14:16:03;3.60;;;1.25;;
62861;SDS011;48953;53.110;5.592;2022-09-09T14:18:29;3.60;;;1.80;;
62861;SDS011;48953;53.110;5.592;2022-09-09T14:20:55;2.53;;;1.60;;
62861;SDS011;48953;53.110;5.592;2022-09-09T14:23:22;3.75;;;1.55;;
62861;SDS011;48953;53.110;5.592;2022-09-09T14:25:47;4.05;;;1.38;;
62861;SDS011;48953;53.110;5.592;2022-09-09T14:28:14;2.38;;;1.40;;
62861;SDS011;48953;53.110;5.592;2022-09-09T14:30:40;3.22;;;1.40;;
62861;SDS011;48953;53.110;5.592;2022-09-09T14:33:08;2.30;;;1.30;;
62861;SDS011;48953;53.110;5.592;2022-09-09T14:35:38;3.38;;;1.40;;
62861;SDS011;48953;53.110;5.592;2022-09-09T14:38:05;2.85;;;1.63;;
62861;SDS011;48953;53.110;5.592;2022-09-09T14:40:33;2.45;;;1.80;;
62861;SDS011;48953;53.110;5.592;2022-09-09T14:43:00;3.78;;;2.45;;
62861;SDS011;48953;53.110;5.592;2022-09-09T14:45:26;4.65;;;2.50;;
62861;SDS011;48953;53.110;5.592;2022-09-09T14:47:51;2.25;;;1.90;;
62861;SDS011;48953;53.110;5.592;2022-09-09T14:50:18;3.40;;;1.83;;
62861;SDS011;48953;53.110;5.592;2022-09-09T14:52:44;5.78;;;1.67;;
62861;SDS011;48953;53.110;5.592;2022-09-09T14:55:11;2.40;;;1.30;;
62861;SDS011;48953;53.110;5.592;2022-09-09T14:57:36;2.10;;;1.48;;
62861;SDS011;48953;53.110;5.592;2022-09-09T15:00:04;2.72;;;1.80;;
62861;SDS011;48953;53.110;5.592;2022-09-09T15:02:30;2.83;;;1.77;;
62861;SDS011;48953;53.110;5.592;2022-09-09T15:04:56;4.10;;;1.90;;
62861;SDS011;48953;53.110;5.592;2022-09-09T15:07:22;2.97;;;1.77;;
62861;SDS011;48953;53.110;5.592;2022-09-09T15:09:48;5.20;;;1.77;;
62861;SDS011;48953;53.110;5.592;2022-09-09T15:12:14;3.53;;;2.10;;
62861;SDS011;48953;53.110;5.592;2022-09-09T15:14:40;4.28;;;2.08;;
62861;SDS011;48953;53.110;5.592;2022-09-09T15:17:06;3.28;;;1.70;;
62861;SDS011;48953;53.110;5.592;2022-09-09T15:19:31;3.28;;;2.35;;
62861;SDS011;48953;53.110;5.592;2022-09-09T15:21:57;3.10;;;2.08;;
62861;SDS011;48953;53.110;5.592;2022-09-09T15:24:24;2.97;;;1.90;;
62861;SDS011;48953;53.110;5.592;2022-09-09T15:26:52;3.40;;;2.10;;
62861;SDS011;48953;53.110;5.592;2022-09-09T15:29:18;5.10;;;2.40;;
62861;SDS011;48953;53.110;5.592;2022-09-09T15:31:44;5.13;;;2.60;;
62861;SDS011;48953;53.110;5.592;2022-09-09T15:34:10;3.13;;;2.42;;
62861;SDS011;48953;53.110;5.592;2022-09-09T15:36:37;4.70;;;2.40;;
62861;SDS011;48953;53.110;5.592;2022-09-09T15:39:06;6.32;;;2.67;;
62861;SDS011;48953;53.110;5.592;2022-09-09T15:41:34;4.88;;;3.00;;
62861;SDS011;48953;53.110;5.592;2022-09-09T15:44:00;6.50;;;3.40;;
62861;SDS011;48953;53.110;5.592;2022-09-09T15:46:28;6.57;;;3.35;;
62861;SDS011;48953;53.110;5.592;2022-09-09T15:49:21;4.57;;;3.40;;
62861;SDS011;48953;53.110;5.592;2022-09-09T15:51:53;9.52;;;3.53;;
62861;SDS011;48953;53.110;5.592;2022-09-09T15:54:22;10.88;;;3.00;;
62861;SDS011;48953;53.110;5.592;2022-09-09T15:56:54;30.00;;;4.13;;
62861;SDS011;48953;53.110;5.592;2022-09-09T15:59:24;13.35;;;3.10;;
62861;SDS011;48953;53.110;5.592;2022-09-09T16:01:51;6.28;;;2.10;;
62861;SDS011;48953;53.110;5.592;2022-09-09T16:04:17;3.80;;;1.90;;
62861;SDS011;48953;53.110;5.592;2022-09-09T16:06:54;6.07;;;1.83;;
62861;SDS011;48953;53.110;5.592;2022-09-09T16:09:23;3.90;;;1.83;;
62861;SDS011;48953;53.110;5.592;2022-09-09T16:11:49;4.82;;;2.35;;
62861;SDS011;48953;53.110;5.592;2022-09-09T16:14:16;4.63;;;2.70;;
62861;SDS011;48953;53.110;5.592;2022-09-09T16:16:42;4.70;;;2.75;;
62861;SDS011;48953;53.110;5.592;2022-09-09T16:19:09;3.97;;;2.72;;
62861;SDS011;48953;53.110;5.592;2022-09-09T16:21:38;8.20;;;3.40;;
62861;SDS011;48953;53.110;5.592;2022-09-09T16:24:07;6.78;;;3.35;;
62861;SDS011;48953;53.110;5.592;2022-09-09T16:26:35;5.90;;;3.35;;
62861;SDS011;48953;53.110;5.592;2022-09-09T16:29:02;6.10;;;3.47;;
62861;SDS011;48953;53.110;5.592;2022-09-09T16:31:28;3.90;;;3.38;;
62861;SDS011;48953;53.110;5.592;2022-09-09T16:33:55;5.45;;;3.65;;
62861;SDS011;48953;53.110;5.592;2022-09-09T16:36:22;5.75;;;3.42;;
62861;SDS011;48953;53.110;5.592;2022-09-09T16:38:53;6.60;;;3.72;;
62861;SDS011;48953;53.110;5.592;2022-09-09T16:41:22;6.22;;;4.15;;
62861;SDS011;48953;53.110;5.592;2022-09-09T16:43:55;5.55;;;3.60;;
62861;SDS011;48953;53.110;5.592;2022-09-09T16:46:23;5.22;;;4.00;;
62861;SDS011;48953;53.110;5.592;2022-09-09T16:48:50;8.15;;;4.10;;
62861;SDS011;48953;53.110;5.592;2022-09-09T16:51:17;6.07;;;3.90;;
62861;SDS011;48953;53.110;5.592;2022-09-09T16:53:43;6.25;;;4.10;;
62861;SDS011;48953;53.110;5.592;2022-09-09T16:56:10;4.60;;;4.20;;
62861;SDS011;48953;53.110;5.592;2022-09-09T16:58:41;8.68;;;4.13;;
62861;SDS011;48953;53.110;5.592;2022-09-09T17:01:10;4.47;;;3.60;;